createdAt,value
2023-03-04T00:00:01.018Z,114.10
2023-03-04T00:00:11.048Z,106.80
2023-03-04T00:00:21.017Z,106.10
2023-03-04T00:00:31.010Z,104.50
2023-03-04T00:00:41.054Z,110.40
2023-03-04T00:00:51.008Z,113.80
2023-03-04T00:01:01.024Z,118.70
2023-03-04T00:01:11.060Z,119.50
2023-03-04T00:01:20.997Z,117.10
2023-03-04T00:01:31.009Z,116.70
2023-03-04T00:01:41.088Z,110.80
2023-03-04T00:01:51.101Z,113.50
2023-03-04T00:02:01.017Z,110.90
2023-03-04T00:02:11.026Z,109.40
2023-03-04T00:02:21.066Z,108.70
2023-03-04T00:02:31.008Z,107.60
2023-03-04T00:02:41.056Z,110.80
2023-03-04T00:02:51.063Z,113.10
2023-03-04T00:03:01.177Z,114.30
2023-03-04T00:03:11.073Z,113.70
2023-03-04T00:03:21.072Z,113.40
2023-03-04T00:03:31.057Z,113.90
2023-03-04T00:03:41.022Z,116.10
2023-03-04T00:03:51.012Z,118.20
2023-03-04T00:04:00.988Z,119.80
2023-03-04T00:04:10.980Z,120.40
2023-03-04T00:04:20.981Z,117.20
2023-03-04T00:04:31.029Z,117.50
2023-03-04T00:04:40.990Z,116.70
2023-03-04T00:04:50.987Z,116.60
2023-03-04T00:05:01.005Z,113.00
2023-03-04T00:05:10.981Z,110.60
2023-03-04T00:05:20.996Z,107.90
2023-03-04T00:05:31.060Z,106.10
2023-03-04T00:05:40.993Z,106.20
2023-03-04T00:05:51.001Z,110.10
2023-03-04T00:06:00.994Z,112.00
2023-03-04T00:06:10.991Z,108.70
2023-03-04T00:06:21.030Z,104.20
2023-03-04T00:06:30.988Z,107.60
2023-03-04T00:06:40.979Z,111.20
2023-03-04T00:06:51.030Z,111.80
2023-03-04T00:07:01.083Z,110.20
2023-03-04T00:07:11.007Z,113.00
2023-03-04T00:07:20.988Z,113.20
2023-03-04T00:07:30.979Z,117.10
2023-03-04T00:07:41.595Z,115.10
2023-03-04T00:07:50.979Z,120.20
2023-03-04T00:08:01.080Z,114.20
2023-03-04T00:08:10.977Z,109.60
2023-03-04T00:08:20.973Z,107.70
2023-03-04T00:08:30.973Z,106.20
2023-03-04T00:08:40.994Z,107.00
2023-03-04T00:08:51.121Z,103.70
2023-03-04T00:09:00.974Z,99.50
2023-03-04T00:09:10.977Z,102.30
2023-03-04T00:09:20.985Z,100.50
2023-03-04T00:09:30.972Z,104.20
2023-03-04T00:09:41.003Z,104.00
2023-03-04T00:09:50.964Z,106.80
2023-03-04T00:10:00.986Z,107.10
2023-03-04T00:10:11.024Z,104.10
2023-03-04T00:10:21.026Z,105.60
2023-03-04T00:10:30.965Z,106.80
2023-03-04T00:10:40.997Z,110.50
2023-03-04T00:10:50.973Z,108.30
2023-03-04T00:11:00.965Z,107.40
2023-03-04T00:11:11.101Z,103.50
2023-03-04T00:11:20.965Z,98.80
2023-03-04T00:11:32.094Z,97.30
2023-03-04T00:11:41.003Z,98.90
2023-03-04T00:11:51.003Z,101.10
2023-03-04T00:12:00.981Z,103.20
2023-03-04T00:12:11.005Z,100.70
2023-03-04T00:12:20.979Z,99.80
2023-03-04T00:12:30.982Z,101.90
2023-03-04T00:12:41.601Z,104.00
2023-03-04T00:12:50.945Z,105.60
2023-03-04T00:13:00.976Z,105.30
2023-03-04T00:13:10.961Z,106.90
2023-03-04T00:13:20.957Z,106.10
2023-03-04T00:13:30.989Z,104.80
2023-03-04T00:13:41.051Z,103.40
2023-03-04T00:13:50.952Z,108.60
2023-03-04T00:14:00.991Z,105.00
2023-03-04T00:14:10.960Z,109.90
2023-03-04T00:14:20.990Z,104.70
2023-03-04T00:14:30.982Z,106.70
2023-03-04T00:14:40.957Z,99.80
2023-03-04T00:14:50.957Z,104.10
2023-03-04T00:15:00.973Z,105.70
2023-03-04T00:15:10.957Z,106.90
2023-03-04T00:15:20.954Z,101.70
2023-03-04T00:15:30.951Z,96.40
2023-03-04T00:15:40.962Z,99.50
2023-03-04T00:15:50.966Z,100.70
2023-03-04T00:16:00.957Z,102.20
2023-03-04T00:16:10.996Z,100.40
2023-03-04T00:16:21.627Z,98.30
2023-03-04T00:16:30.993Z,96.90
2023-03-04T00:16:41.104Z,96.70
2023-03-04T00:16:50.961Z,98.20
2023-03-04T00:17:00.937Z,100.30
2023-03-04T00:17:10.942Z,99.40
2023-03-04T00:17:20.975Z,104.10
2023-03-04T00:17:30.942Z,103.00
2023-03-04T00:17:41.651Z,100.10
2023-03-04T00:17:50.960Z,95.20
2023-03-04T00:18:00.943Z,94.70
2023-03-04T00:18:10.943Z,93.10
2023-03-04T00:18:20.941Z,94.50
2023-03-04T00:18:31.016Z,95.40
2023-03-04T00:18:40.956Z,97.30
2023-03-04T00:18:50.923Z,93.70
2023-03-04T00:19:00.925Z,92.00
2023-03-04T00:19:10.943Z,93.90
2023-03-04T00:19:20.924Z,94.60
2023-03-04T00:19:30.933Z,96.90
2023-03-04T00:19:40.991Z,96.20
2023-03-04T00:19:50.926Z,99.20
2023-03-04T00:20:00.932Z,99.80
2023-03-04T00:20:10.927Z,102.00
2023-03-04T00:20:20.925Z,98.70
2023-03-04T00:20:31.599Z,97.90
2023-03-04T00:20:40.953Z,96.80
2023-03-04T00:20:50.919Z,97.40
2023-03-04T00:21:00.937Z,95.40
2023-03-04T00:21:10.962Z,92.10
2023-03-04T00:21:20.944Z,90.50
2023-03-04T00:21:30.937Z,87.40
2023-03-04T00:21:40.948Z,83.40
2023-03-04T00:21:51.010Z,82.60
2023-03-04T00:22:00.914Z,80.30
2023-03-04T00:22:10.940Z,81.80
2023-03-04T00:22:20.910Z,81.50
2023-03-04T00:22:30.944Z,83.80
2023-03-04T00:22:40.933Z,91.70
2023-03-04T00:22:50.921Z,96.00
2023-03-04T00:23:00.943Z,95.00
2023-03-04T00:23:10.910Z,88.50
2023-03-04T00:23:21.020Z,85.60
2023-03-04T00:23:30.935Z,89.40
2023-03-04T00:23:40.916Z,92.00
2023-03-04T00:23:50.934Z,92.00
2023-03-04T00:24:00.944Z,92.40
2023-03-04T00:24:10.913Z,93.50
2023-03-04T00:24:20.927Z,92.30
2023-03-04T00:24:30.914Z,88.70
2023-03-04T00:24:40.925Z,85.60
2023-03-04T00:24:50.907Z,84.40
2023-03-04T00:25:00.906Z,87.30
2023-03-04T00:25:10.902Z,89.10
2023-03-04T00:25:20.900Z,91.00
2023-03-04T00:25:30.898Z,91.00
2023-03-04T00:25:43.480Z,90.80
2023-03-04T00:25:50.932Z,91.40
2023-03-04T00:26:00.896Z,89.00
2023-03-04T00:26:10.932Z,87.00
2023-03-04T00:26:20.917Z,88.80
2023-03-04T00:26:30.899Z,97.30
2023-03-04T00:26:40.898Z,99.40
2023-03-04T00:26:50.962Z,96.40
2023-03-04T00:27:00.964Z,91.20
2023-03-04T00:27:10.907Z,88.30
2023-03-04T00:27:20.922Z,91.90
2023-03-04T00:27:30.887Z,93.70
2023-03-04T00:27:40.889Z,98.00
2023-03-04T00:27:50.891Z,97.20
2023-03-04T00:28:00.895Z,97.20
2023-03-04T00:28:10.894Z,97.50
2023-03-04T00:28:20.896Z,97.10
2023-03-04T00:28:30.886Z,91.80
2023-03-04T00:28:40.898Z,88.90
2023-03-04T00:28:50.938Z,89.40
2023-03-04T00:29:00.889Z,88.80
2023-03-04T00:29:10.902Z,86.80
2023-03-04T00:29:20.879Z,86.10
2023-03-04T00:29:30.885Z,86.70
2023-03-04T00:29:40.883Z,86.70
2023-03-04T00:29:50.884Z,82.80
2023-03-04T00:30:00.895Z,82.80
2023-03-04T00:30:10.887Z,83.30
2023-03-04T00:30:20.881Z,84.70
2023-03-04T00:30:30.895Z,91.40
2023-03-04T00:30:40.875Z,84.20
2023-03-04T00:30:50.888Z,83.00
2023-03-04T00:31:00.935Z,79.20
2023-03-04T00:31:10.881Z,85.90
2023-03-04T00:31:20.956Z,82.80
2023-03-04T00:31:30.935Z,81.90
2023-03-04T00:31:41.679Z,81.80
2023-03-04T00:31:50.935Z,83.50
2023-03-04T00:32:01.124Z,82.10
2023-03-04T00:32:11.283Z,81.50
2023-03-04T00:32:21.009Z,80.10
2023-03-04T00:32:30.923Z,77.70
2023-03-04T00:32:40.896Z,77.30
2023-03-04T00:32:50.892Z,81.30
2023-03-04T00:33:01.594Z,79.50
2023-03-04T00:33:10.882Z,81.90
2023-03-04T00:33:21.593Z,82.50
2023-03-04T00:33:30.863Z,85.10
2023-03-04T00:33:40.861Z,86.50
2023-03-04T00:33:51.603Z,82.10
2023-03-04T00:34:01.631Z,83.60
2023-03-04T00:34:10.888Z,82.40
2023-03-04T00:34:20.858Z,85.50
2023-03-04T00:34:32.819Z,87.50
2023-03-04T00:34:40.860Z,86.10
2023-03-04T00:34:50.870Z,81.50
2023-03-04T00:35:00.864Z,75.50
2023-03-04T00:35:10.861Z,74.80
2023-03-04T00:35:20.975Z,79.90
2023-03-04T00:35:30.943Z,87.00
2023-03-04T00:35:40.908Z,86.20
2023-03-04T00:35:50.986Z,85.60
2023-03-04T00:36:00.855Z,79.30
2023-03-04T00:36:10.891Z,76.80
2023-03-04T00:36:20.898Z,78.20
2023-03-04T00:36:30.848Z,78.70
2023-03-04T00:36:40.899Z,77.30
2023-03-04T00:36:50.853Z,72.20
2023-03-04T00:37:00.863Z,73.50
2023-03-04T00:37:10.884Z,78.80
2023-03-04T00:37:21.042Z,82.80
2023-03-04T00:37:30.853Z,84.60
2023-03-04T00:37:40.997Z,81.50
2023-03-04T00:37:50.849Z,81.50
2023-03-04T00:38:00.950Z,78.70
2023-03-04T00:38:10.853Z,76.60
2023-03-04T00:38:20.840Z,72.80
2023-03-04T00:38:30.853Z,68.30
2023-03-04T00:38:40.891Z,69.40
2023-03-04T00:38:50.841Z,68.40
2023-03-04T00:39:00.852Z,68.40
2023-03-04T00:39:10.864Z,71.00
2023-03-04T00:39:20.919Z,74.90
2023-03-04T00:39:30.857Z,81.90
2023-03-04T00:39:40.853Z,82.10
2023-03-04T00:39:50.835Z,79.60
2023-03-04T00:40:00.887Z,79.90
2023-03-04T00:40:10.848Z,78.00
2023-03-04T00:40:20.837Z,83.10
2023-03-04T00:40:30.864Z,83.40
2023-03-04T00:40:40.839Z,89.10
2023-03-04T00:40:50.858Z,85.20
2023-03-04T00:41:00.841Z,83.40
2023-03-04T00:41:10.833Z,79.40
2023-03-04T00:41:21.616Z,77.90
2023-03-04T00:41:30.846Z,75.30
2023-03-04T00:41:40.847Z,77.00
2023-03-04T00:41:50.842Z,76.30
2023-03-04T00:42:00.854Z,81.00
2023-03-04T00:42:10.833Z,79.10
2023-03-04T00:42:20.848Z,81.00
2023-03-04T00:42:30.953Z,74.90
2023-03-04T00:42:40.826Z,73.80
2023-03-04T00:42:50.853Z,70.10
2023-03-04T00:43:00.818Z,71.60
2023-03-04T00:43:10.834Z,70.90
2023-03-04T00:43:21.599Z,75.00
2023-03-04T00:43:30.818Z,80.40
2023-03-04T00:43:40.827Z,83.60
2023-03-04T00:43:50.879Z,79.30
2023-03-04T00:44:00.820Z,68.80
2023-03-04T00:44:10.830Z,66.70
2023-03-04T00:44:20.832Z,66.70
2023-03-04T00:44:30.836Z,69.10
2023-03-04T00:44:40.876Z,63.70
2023-03-04T00:44:50.831Z,63.90
2023-03-04T00:45:00.821Z,66.90
2023-03-04T00:45:10.861Z,70.20
2023-03-04T00:45:20.861Z,73.40
2023-03-04T00:45:31.622Z,77.50
2023-03-04T00:45:40.942Z,77.30
2023-03-04T00:45:51.061Z,78.70
2023-03-04T00:46:00.851Z,80.10
2023-03-04T00:46:10.890Z,81.40
2023-03-04T00:46:20.873Z,80.90
2023-03-04T00:46:30.813Z,71.70
2023-03-04T00:46:40.853Z,76.30
2023-03-04T00:46:50.805Z,78.10
2023-03-04T00:47:00.821Z,85.80
2023-03-04T00:47:10.902Z,80.70
2023-03-04T00:47:20.812Z,75.20
2023-03-04T00:47:31.606Z,74.40
2023-03-04T00:47:40.877Z,69.40
2023-03-04T00:47:50.886Z,70.50
2023-03-04T00:48:00.817Z,71.30
2023-03-04T00:48:10.810Z,77.90
2023-03-04T00:48:20.830Z,79.90
2023-03-04T00:48:30.806Z,80.90
2023-03-04T00:48:40.802Z,77.90
2023-03-04T00:48:50.804Z,77.10
2023-03-04T00:49:00.828Z,73.90
2023-03-04T00:49:10.802Z,70.70
2023-03-04T00:49:20.799Z,68.90
2023-03-04T00:49:30.827Z,69.50
2023-03-04T00:49:41.606Z,77.10
2023-03-04T00:49:50.806Z,76.00
2023-03-04T00:50:00.828Z,78.00
2023-03-04T00:50:11.620Z,76.90
2023-03-04T00:50:20.806Z,78.00
2023-03-04T00:50:31.632Z,75.60
2023-03-04T00:50:40.794Z,69.20
2023-03-04T00:50:50.798Z,62.00
2023-03-04T00:51:00.833Z,60.80
2023-03-04T00:51:10.807Z,67.10
2023-03-04T00:51:20.840Z,78.30
2023-03-04T00:51:30.800Z,81.10
2023-03-04T00:51:40.812Z,80.80
2023-03-04T00:51:50.847Z,73.80
2023-03-04T00:52:00.796Z,74.70
2023-03-04T00:52:10.804Z,74.10
2023-03-04T00:52:20.809Z,76.80
2023-03-04T00:52:30.807Z,73.70
2023-03-04T00:52:40.793Z,70.40
2023-03-04T00:52:50.865Z,71.50
2023-03-04T00:53:00.782Z,74.60
2023-03-04T00:53:10.796Z,80.80
2023-03-04T00:53:20.821Z,82.90
2023-03-04T00:53:30.778Z,78.20
2023-03-04T00:53:40.790Z,73.00
2023-03-04T00:53:51.611Z,73.90
2023-03-04T00:54:01.143Z,79.10
2023-03-04T00:54:10.808Z,82.40
2023-03-04T00:54:20.855Z,77.40
2023-03-04T00:54:30.861Z,76.40
2023-03-04T00:54:40.810Z,75.10
2023-03-04T00:54:50.789Z,83.60
2023-03-04T00:55:00.778Z,81.30
2023-03-04T00:55:10.817Z,85.70
2023-03-04T00:55:20.801Z,78.80
2023-03-04T00:55:30.779Z,80.20
2023-03-04T00:55:40.804Z,70.60
2023-03-04T00:55:50.792Z,76.20
2023-03-04T00:56:00.858Z,72.80
2023-03-04T00:56:10.809Z,82.10
2023-03-04T00:56:20.775Z,77.90
2023-03-04T00:56:30.780Z,79.90
2023-03-04T00:56:40.788Z,73.90
2023-03-04T00:56:50.766Z,79.20
2023-03-04T00:57:00.776Z,79.20
2023-03-04T00:57:10.771Z,84.60
2023-03-04T00:57:20.816Z,79.80
2023-03-04T00:57:30.804Z,76.40
2023-03-04T00:57:40.777Z,72.90
2023-03-04T00:57:50.773Z,75.40
2023-03-04T00:58:00.846Z,74.70
2023-03-04T00:58:10.759Z,77.50
2023-03-04T00:58:20.800Z,75.50
2023-03-04T00:58:30.844Z,82.50
2023-03-04T00:58:40.762Z,80.20
2023-03-04T00:58:50.763Z,76.20
2023-03-04T00:59:00.795Z,75.80
2023-03-04T00:59:10.772Z,78.80
2023-03-04T00:59:21.660Z,86.50
2023-03-04T00:59:30.795Z,86.50
2023-03-04T00:59:40.835Z,82.40
2023-03-04T00:59:50.780Z,80.80
2023-03-04T01:00:00.769Z,79.10
2023-03-04T01:00:11.626Z,79.20
2023-03-04T01:00:20.759Z,77.40
2023-03-04T01:00:30.758Z,69.80
2023-03-04T01:00:41.611Z,74.20
2023-03-04T01:00:50.772Z,76.10
2023-03-04T01:01:00.780Z,83.70
2023-03-04T01:01:10.810Z,81.00
2023-03-04T01:01:20.965Z,76.80
2023-03-04T01:01:30.808Z,75.20
2023-03-04T01:01:40.839Z,74.60
2023-03-04T01:01:50.764Z,78.50
2023-03-04T01:02:00.772Z,77.50
2023-03-04T01:02:11.727Z,79.50
2023-03-04T01:02:20.820Z,79.10
2023-03-04T01:02:30.797Z,78.20
2023-03-04T01:02:40.847Z,78.40
2023-03-04T01:02:50.860Z,82.20
2023-03-04T01:03:00.746Z,85.20
2023-03-04T01:03:10.877Z,84.80
2023-03-04T01:03:20.832Z,78.70
2023-03-04T01:03:30.746Z,76.40
2023-03-04T01:03:40.735Z,76.00
2023-03-04T01:03:50.737Z,78.40
2023-03-04T01:04:00.762Z,80.40
2023-03-04T01:04:10.778Z,82.50
2023-03-04T01:04:20.801Z,81.90
2023-03-04T01:04:30.767Z,79.90
2023-03-04T01:04:40.767Z,78.80
2023-03-04T01:04:50.776Z,78.10
2023-03-04T01:05:00.775Z,79.30
2023-03-04T01:05:11.624Z,75.00
2023-03-04T01:05:20.740Z,80.50
2023-03-04T01:05:30.740Z,81.30
2023-03-04T01:05:40.742Z,84.10
2023-03-04T01:05:50.745Z,77.50
2023-03-04T01:06:00.741Z,75.00
2023-03-04T01:06:10.752Z,75.10
2023-03-04T01:06:20.749Z,78.30
2023-03-04T01:06:30.756Z,79.90
2023-03-04T01:06:40.779Z,86.30
2023-03-04T01:06:50.756Z,80.90
2023-03-04T01:07:00.765Z,80.40
2023-03-04T01:07:10.729Z,75.40
2023-03-04T01:07:20.737Z,81.40
2023-03-04T01:07:30.843Z,83.90
2023-03-04T01:07:40.799Z,82.50
2023-03-04T01:07:51.729Z,79.70
2023-03-04T01:08:00.751Z,78.20
2023-03-04T01:08:10.725Z,78.20
2023-03-04T01:08:20.852Z,76.90
2023-03-04T01:08:30.786Z,79.00
2023-03-04T01:08:40.772Z,83.90
2023-03-04T01:08:50.742Z,87.60
2023-03-04T01:09:00.764Z,89.50
2023-03-04T01:09:11.614Z,85.70
2023-03-04T01:09:20.751Z,82.20
2023-03-04T01:09:30.853Z,78.60
2023-03-04T01:09:40.717Z,78.40
2023-03-04T01:09:50.740Z,84.20
2023-03-04T01:10:00.717Z,85.80
2023-03-04T01:10:10.732Z,85.90
2023-03-04T01:10:20.737Z,82.50
2023-03-04T01:10:30.706Z,82.80
2023-03-04T01:10:40.721Z,84.90
2023-03-04T01:10:50.745Z,84.10
2023-03-04T01:11:00.766Z,80.20
2023-03-04T01:11:10.726Z,76.50
2023-03-04T01:11:20.753Z,75.80
2023-03-04T01:11:30.719Z,82.60
2023-03-04T01:11:40.748Z,87.20
2023-03-04T01:11:50.707Z,85.90
2023-03-04T01:12:00.710Z,82.40
2023-03-04T01:12:10.715Z,75.60
2023-03-04T01:12:20.719Z,76.40
2023-03-04T01:12:31.727Z,76.00
2023-03-04T01:12:40.789Z,76.30
2023-03-04T01:12:50.777Z,80.70
2023-03-04T01:13:00.728Z,82.60
2023-03-04T01:13:10.740Z,84.70
2023-03-04T01:13:20.729Z,83.10
2023-03-04T01:13:30.765Z,85.00
2023-03-04T01:13:40.728Z,87.70
2023-03-04T01:13:50.743Z,86.20
2023-03-04T01:14:00.728Z,82.50
2023-03-04T01:14:10.733Z,79.50
2023-03-04T01:14:20.726Z,80.60
2023-03-04T01:14:30.735Z,77.10
2023-03-04T01:14:40.737Z,79.70
2023-03-04T01:14:50.696Z,81.60
2023-03-04T01:15:00.722Z,87.00
2023-03-04T01:15:10.820Z,81.50
2023-03-04T01:15:20.711Z,80.50
2023-03-04T01:15:30.715Z,79.70
2023-03-04T01:15:40.709Z,81.00
2023-03-04T01:15:50.705Z,80.20
2023-03-04T01:16:00.762Z,76.60
2023-03-04T01:16:10.833Z,77.60
2023-03-04T01:16:20.729Z,81.30
2023-03-04T01:16:30.750Z,83.20
2023-03-04T01:16:40.777Z,82.70
2023-03-04T01:16:50.796Z,76.60
2023-03-04T01:17:00.850Z,71.40
2023-03-04T01:17:10.746Z,68.70
2023-03-04T01:17:20.750Z,70.20
2023-03-04T01:17:30.754Z,74.50
2023-03-04T01:17:40.829Z,78.40
2023-03-04T01:17:50.700Z,79.00
2023-03-04T01:18:00.813Z,75.10
2023-03-04T01:18:10.873Z,77.60
2023-03-04T01:18:20.690Z,77.30
2023-03-04T01:18:30.725Z,81.50
2023-03-04T01:18:40.740Z,74.50
2023-03-04T01:18:51.614Z,72.60
2023-03-04T01:19:00.872Z,71.60
2023-03-04T01:19:10.673Z,76.50
2023-03-04T01:19:20.718Z,79.90
2023-03-04T01:19:30.670Z,83.40
2023-03-04T01:19:40.708Z,81.70
2023-03-04T01:19:50.684Z,80.30
2023-03-04T01:20:01.619Z,73.70
2023-03-04T01:20:10.677Z,77.50
2023-03-04T01:20:20.678Z,79.60
2023-03-04T01:20:30.675Z,79.10
2023-03-04T01:20:40.673Z,74.90
2023-03-04T01:20:50.736Z,68.80
2023-03-04T01:21:01.604Z,67.70
2023-03-04T01:21:10.830Z,63.70
2023-03-04T01:21:20.690Z,66.60
2023-03-04T01:21:30.664Z,68.90
2023-03-04T01:21:40.663Z,71.30
2023-03-04T01:21:50.664Z,71.60
2023-03-04T01:22:00.676Z,70.20
2023-03-04T01:22:10.661Z,66.80
2023-03-04T01:22:20.688Z,63.80
2023-03-04T01:22:30.660Z,63.40
2023-03-04T01:22:40.669Z,69.30
2023-03-04T01:22:50.679Z,65.60
2023-03-04T01:23:00.674Z,61.30
2023-03-04T01:23:10.666Z,62.40
2023-03-04T01:23:20.652Z,66.80
2023-03-04T01:23:30.667Z,70.80
2023-03-04T01:23:40.660Z,63.60
2023-03-04T01:23:50.726Z,60.20
2023-03-04T01:24:00.647Z,59.90
2023-03-04T01:24:10.657Z,64.30
2023-03-04T01:24:20.672Z,67.90
2023-03-04T01:24:30.663Z,61.60
2023-03-04T01:24:40.650Z,65.30
2023-03-04T01:24:50.676Z,63.10
2023-03-04T01:25:00.698Z,69.00
2023-03-04T01:25:10.747Z,65.50
2023-03-04T01:25:20.653Z,69.10
2023-03-04T01:25:31.602Z,73.40
2023-03-04T01:25:40.655Z,66.70
2023-03-04T01:25:50.663Z,68.20
2023-03-04T01:26:00.661Z,66.60
2023-03-04T01:26:10.648Z,67.80
2023-03-04T01:26:20.759Z,61.10
2023-03-04T01:26:30.651Z,61.30
2023-03-04T01:26:40.643Z,62.30
2023-03-04T01:26:50.656Z,56.60
2023-03-04T01:27:00.651Z,54.40
2023-03-04T01:27:11.734Z,56.30
2023-03-04T01:27:20.655Z,59.70
2023-03-04T01:27:30.651Z,57.80
2023-03-04T01:27:40.636Z,55.30
2023-03-04T01:27:50.637Z,59.80
2023-03-04T01:28:00.666Z,60.50
2023-03-04T01:28:10.632Z,60.70
2023-03-04T01:28:20.646Z,57.80
2023-03-04T01:28:30.716Z,63.80
2023-03-04T01:28:40.634Z,61.20
2023-03-04T01:28:50.681Z,58.40
2023-03-04T01:29:00.710Z,51.10
2023-03-04T01:29:10.653Z,54.50
2023-03-04T01:29:20.687Z,51.90
2023-03-04T01:29:30.625Z,52.90
2023-03-04T01:29:40.627Z,48.80
2023-03-04T01:29:50.640Z,49.70
2023-03-04T01:30:00.626Z,51.30
2023-03-04T01:30:11.599Z,48.60
2023-03-04T01:30:20.647Z,51.20
2023-03-04T01:30:30.721Z,47.40
2023-03-04T01:30:40.659Z,57.40
2023-03-04T01:30:50.705Z,61.20
2023-03-04T01:31:01.672Z,64.50
2023-03-04T01:31:10.713Z,61.00
2023-03-04T01:31:20.682Z,58.10
2023-03-04T01:31:30.621Z,58.00
2023-03-04T01:31:40.618Z,59.10
2023-03-04T01:31:50.619Z,58.50
2023-03-04T01:32:00.658Z,57.00
2023-03-04T01:32:10.722Z,53.20
2023-03-04T01:32:20.721Z,48.30
2023-03-04T01:32:30.664Z,50.90
2023-03-04T01:32:40.652Z,53.30
2023-03-04T01:32:50.622Z,57.50
2023-03-04T01:33:00.662Z,49.20
2023-03-04T01:33:10.627Z,46.10
2023-03-04T01:33:20.614Z,46.70
2023-03-04T01:33:30.698Z,60.00
2023-03-04T01:33:40.637Z,69.00
2023-03-04T01:33:50.610Z,71.00
2023-03-04T01:34:00.608Z,63.00
2023-03-04T01:34:10.750Z,52.90
2023-03-04T01:34:20.612Z,55.20
2023-03-04T01:34:31.604Z,54.80
2023-03-04T01:34:40.608Z,64.00
2023-03-04T01:34:50.640Z,66.00
2023-03-04T01:35:00.619Z,60.40
2023-03-04T01:35:10.618Z,61.60
2023-03-04T01:35:21.678Z,56.50
2023-03-04T01:35:30.643Z,65.30
2023-03-04T01:35:40.686Z,65.50
2023-03-04T01:35:50.675Z,55.90
2023-03-04T01:36:00.630Z,52.70
2023-03-04T01:36:10.606Z,45.70
2023-03-04T01:36:20.601Z,55.90
2023-03-04T01:36:30.693Z,60.10
2023-03-04T01:36:41.115Z,64.80
2023-03-04T01:36:50.660Z,57.20
2023-03-04T01:37:00.613Z,53.90
2023-03-04T01:37:10.599Z,53.50
2023-03-04T01:37:20.596Z,61.80
2023-03-04T01:37:31.146Z,56.60
2023-03-04T01:37:40.679Z,53.00
2023-03-04T01:37:50.602Z,47.90
2023-03-04T01:38:00.619Z,54.00
2023-03-04T01:38:10.596Z,55.70
2023-03-04T01:38:20.605Z,59.80
2023-03-04T01:38:30.595Z,55.10
2023-03-04T01:38:40.602Z,49.80
2023-03-04T01:38:50.598Z,46.20
2023-03-04T01:39:00.621Z,47.50
2023-03-04T01:39:10.595Z,46.80
2023-03-04T01:39:20.636Z,48.80
2023-03-04T01:39:30.586Z,54.10
2023-03-04T01:39:40.620Z,54.30
2023-03-04T01:39:50.612Z,55.90
2023-03-04T01:40:00.591Z,53.10
2023-03-04T01:40:10.634Z,53.10
2023-03-04T01:40:20.604Z,48.30
2023-03-04T01:40:30.593Z,46.70
2023-03-04T01:40:40.601Z,53.10
2023-03-04T01:40:50.640Z,50.20
2023-03-04T01:41:00.628Z,47.10
2023-03-04T01:41:10.590Z,47.20
2023-03-04T01:41:20.623Z,45.10
2023-03-04T01:41:30.588Z,46.50
2023-03-04T01:41:40.599Z,44.00
2023-03-04T01:41:50.636Z,46.00
2023-03-04T01:42:00.578Z,45.10
2023-03-04T01:42:10.592Z,45.70
2023-03-04T01:42:20.591Z,44.60
2023-03-04T01:42:30.582Z,44.30
2023-03-04T01:42:40.593Z,45.50
2023-03-04T01:42:50.597Z,44.90
2023-03-04T01:43:00.602Z,45.90
2023-03-04T01:43:10.570Z,47.10
2023-03-04T01:43:20.611Z,55.60
2023-03-04T01:43:30.578Z,46.70
2023-03-04T01:43:41.116Z,44.60
2023-03-04T01:43:51.121Z,48.20
2023-03-04T01:44:00.649Z,50.60
2023-03-04T01:44:11.121Z,43.70
2023-03-04T01:44:20.568Z,42.90
2023-03-04T01:44:30.684Z,40.40
2023-03-04T01:44:40.593Z,40.50
2023-03-04T01:44:50.573Z,40.70
2023-03-04T01:45:00.592Z,41.40
2023-03-04T01:45:10.568Z,44.30
2023-03-04T01:45:20.699Z,44.60
2023-03-04T01:45:30.573Z,44.70
2023-03-04T01:45:40.622Z,42.30
2023-03-04T01:45:50.618Z,43.70
2023-03-04T01:46:00.626Z,45.00
2023-03-04T01:46:10.634Z,45.80
2023-03-04T01:46:20.661Z,41.30
2023-03-04T01:46:30.673Z,44.50
2023-03-04T01:46:40.582Z,44.90
2023-03-04T01:46:50.580Z,42.50
2023-03-04T01:47:00.566Z,40.60
2023-03-04T01:47:10.563Z,40.80
2023-03-04T01:47:20.572Z,47.00
2023-03-04T01:47:30.569Z,48.30
2023-03-04T01:47:40.566Z,47.30
2023-03-04T01:47:50.575Z,47.20
2023-03-04T01:48:00.608Z,48.00
2023-03-04T01:48:10.552Z,45.10
2023-03-04T01:48:21.121Z,43.90
2023-03-04T01:48:30.570Z,42.60
2023-03-04T01:48:40.598Z,42.40
2023-03-04T01:48:50.620Z,42.30
2023-03-04T01:49:00.604Z,43.10
2023-03-04T01:49:10.622Z,43.00
2023-03-04T01:49:20.618Z,41.40
2023-03-04T01:49:30.576Z,39.60
2023-03-04T01:49:40.609Z,39.20
2023-03-04T01:49:50.582Z,40.40
2023-03-04T01:50:01.130Z,42.20
2023-03-04T01:50:10.598Z,40.20
2023-03-04T01:50:20.901Z,39.80
2023-03-04T01:50:30.545Z,39.30
2023-03-04T01:50:40.671Z,40.80
2023-03-04T01:50:50.549Z,40.70
2023-03-04T01:51:00.553Z,39.50
2023-03-04T01:51:10.567Z,40.10
2023-03-04T01:51:20.553Z,40.40
2023-03-04T01:51:30.553Z,41.70
2023-03-04T01:51:40.549Z,41.00
2023-03-04T01:51:50.547Z,40.10
2023-03-04T01:52:00.557Z,39.80
2023-03-04T01:52:10.565Z,40.60
2023-03-04T01:52:20.540Z,39.40
2023-03-04T01:52:30.629Z,38.80
2023-03-04T01:52:40.578Z,38.40
2023-03-04T01:52:50.534Z,39.60
2023-03-04T01:53:00.580Z,40.80
2023-03-04T01:53:10.563Z,40.10
2023-03-04T01:53:20.538Z,41.40
2023-03-04T01:53:30.666Z,41.60
2023-03-04T01:53:40.589Z,42.50
2023-03-04T01:53:50.527Z,41.50
2023-03-04T01:54:00.557Z,43.10
2023-03-04T01:54:10.596Z,42.50
2023-03-04T01:54:20.537Z,46.40
2023-03-04T01:54:30.560Z,41.90
2023-03-04T01:54:40.528Z,42.00
2023-03-04T01:54:50.737Z,42.20
2023-03-04T01:55:00.523Z,43.10
2023-03-04T01:55:10.530Z,46.20
2023-03-04T01:55:20.534Z,41.10
2023-03-04T01:55:30.550Z,39.90
2023-03-04T01:55:40.655Z,39.70
2023-03-04T01:55:50.525Z,40.40
2023-03-04T01:56:00.542Z,40.60
2023-03-04T01:56:10.522Z,40.80
2023-03-04T01:56:20.558Z,38.90
2023-03-04T01:56:30.569Z,38.70
2023-03-04T01:56:40.526Z,38.80
2023-03-04T01:56:50.645Z,39.30
2023-03-04T01:57:00.534Z,39.40
2023-03-04T01:57:10.514Z,39.70
2023-03-04T01:57:20.554Z,40.20
2023-03-04T01:57:30.522Z,40.10
2023-03-04T01:57:40.542Z,39.40
2023-03-04T01:57:50.536Z,39.70
2023-03-04T01:58:00.528Z,39.90
2023-03-04T01:58:10.527Z,41.40
2023-03-04T01:58:20.541Z,39.00
2023-03-04T01:58:30.517Z,38.30
2023-03-04T01:58:40.534Z,37.60
2023-03-04T01:58:50.531Z,37.70
2023-03-04T01:59:00.515Z,37.00
2023-03-04T01:59:10.529Z,36.60
2023-03-04T01:59:20.517Z,36.80
2023-03-04T01:59:30.514Z,37.10
2023-03-04T01:59:40.520Z,36.60
2023-03-04T01:59:50.516Z,38.10
2023-03-04T02:00:00.589Z,37.70
2023-03-04T02:00:10.524Z,38.70
2023-03-04T02:00:20.560Z,38.50
2023-03-04T02:00:31.154Z,38.00
2023-03-04T02:00:40.527Z,38.30
2023-03-04T02:00:50.503Z,37.40
2023-03-04T02:01:00.511Z,37.70
2023-03-04T02:01:10.558Z,37.00
2023-03-04T02:01:20.534Z,35.20
2023-03-04T02:01:30.526Z,35.80
2023-03-04T02:01:40.570Z,35.70
2023-03-04T02:01:50.535Z,36.70
2023-03-04T02:02:00.573Z,37.10
2023-03-04T02:02:10.495Z,36.90
2023-03-04T02:02:20.509Z,38.00
2023-03-04T02:02:30.510Z,38.20
2023-03-04T02:02:40.636Z,38.40
2023-03-04T02:02:50.498Z,37.20
2023-03-04T02:03:00.506Z,37.10
2023-03-04T02:03:10.508Z,37.40
2023-03-04T02:03:20.509Z,37.30
2023-03-04T02:03:30.544Z,38.50
2023-03-04T02:03:40.488Z,37.70
2023-03-04T02:03:50.497Z,38.20
2023-03-04T02:04:00.564Z,36.10
2023-03-04T02:04:10.604Z,35.90
2023-03-04T02:04:20.551Z,34.50
2023-03-04T02:04:30.591Z,35.30
2023-03-04T02:04:40.560Z,35.90
2023-03-04T02:04:50.502Z,38.40
2023-03-04T02:05:00.522Z,39.20
2023-03-04T02:05:10.551Z,38.30
2023-03-04T02:05:20.497Z,36.40
2023-03-04T02:05:30.489Z,35.00
2023-03-04T02:05:40.501Z,35.10
2023-03-04T02:05:50.501Z,35.90
2023-03-04T02:06:00.522Z,37.20
2023-03-04T02:06:11.116Z,38.00
2023-03-04T02:06:20.497Z,37.20
2023-03-04T02:06:30.482Z,37.10
2023-03-04T02:06:41.123Z,38.10
2023-03-04T02:06:50.572Z,39.30
2023-03-04T02:07:00.477Z,38.10
2023-03-04T02:07:10.516Z,36.40
2023-03-04T02:07:21.119Z,37.40
2023-03-04T02:07:30.485Z,37.10
2023-03-04T02:07:40.501Z,37.10
2023-03-04T02:07:50.475Z,36.30
2023-03-04T02:08:00.483Z,36.20
2023-03-04T02:08:10.514Z,36.10